createdAt,value
2017-08-26T00:00:15.028Z,21.11
2017-08-26T00:02:47.456Z,21.08
2017-08-26T00:05:13.859Z,21.09
2017-08-26T00:07:40.410Z,21.06
2017-08-26T00:10:06.821Z,21.18
2017-08-26T00:12:33.205Z,21.32
2017-08-26T00:14:59.589Z,21.35
2017-08-26T00:17:25.961Z,21.32
2017-08-26T00:19:52.340Z,21.23
2017-08-26T00:22:18.697Z,21.25
2017-08-26T00:24:45.090Z,21.37
2017-08-26T00:27:11.441Z,21.42
2017-08-26T00:29:37.799Z,21.44
2017-08-26T00:32:04.181Z,21.49
2017-08-26T00:34:30.592Z,21.52
2017-08-26T00:36:57.136Z,21.50
2017-08-26T00:39:23.710Z,21.49
2017-08-26T00:41:50.096Z,21.49
2017-08-26T00:44:16.489Z,21.45
2017-08-26T00:46:42.849Z,21.43
2017-08-26T00:49:09.222Z,21.31
2017-08-26T00:51:35.734Z,21.19
2017-08-26T00:54:02.133Z,21.31
2017-08-26T00:56:28.671Z,21.13
2017-08-26T00:58:55.138Z,21.14
2017-08-26T01:01:21.516Z,21.02
2017-08-26T01:03:47.886Z,21.13
2017-08-26T01:06:14.304Z,21.24
2017-08-26T01:08:40.871Z,21.11
2017-08-26T01:11:07.318Z,21.17
2017-08-26T01:13:33.732Z,21.11
2017-08-26T01:16:00.124Z,21.15
2017-08-26T01:18:26.525Z,21.17
2017-08-26T01:20:52.930Z,21.08
2017-08-26T01:23:19.311Z,20.90
2017-08-26T01:25:45.689Z,20.96
2017-08-26T01:28:12.129Z,20.87
2017-08-26T01:30:39.120Z,20.87
2017-08-26T01:33:06.259Z,20.91
2017-08-26T01:35:32.738Z,21.01
2017-08-26T01:37:59.106Z,20.95
2017-08-26T01:40:25.469Z,21.01
2017-08-26T01:42:51.857Z,20.96
2017-08-26T01:45:18.243Z,21.01
2017-08-26T01:47:44.776Z,20.94
2017-08-26T01:50:11.214Z,20.93
2017-08-26T01:52:37.596Z,20.94
2017-08-26T01:55:03.974Z,21.01
2017-08-26T01:57:30.344Z,20.83
2017-08-26T01:59:56.746Z,20.71
2017-08-26T02:02:23.137Z,20.58
2017-08-26T02:04:50.325Z,20.65
2017-08-26T02:07:16.959Z,20.71
2017-08-26T02:09:43.365Z,20.76
2017-08-26T02:12:09.723Z,20.88
2017-08-26T02:14:36.137Z,20.85
2017-08-26T02:17:02.508Z,20.80
2017-08-26T02:19:28.900Z,20.85
2017-08-26T02:21:56.213Z,20.78
2017-08-26T02:24:22.595Z,20.89
2017-08-26T02:26:48.978Z,20.37
2017-08-26T02:29:15.455Z,20.52
2017-08-26T02:31:41.822Z,20.62
2017-08-26T02:34:08.210Z,20.79
2017-08-26T02:36:34.657Z,20.85
2017-08-26T02:39:01.029Z,20.62
2017-08-26T02:41:27.436Z,20.54
2017-08-26T02:43:53.850Z,20.59
2017-08-26T02:46:20.230Z,20.47
2017-08-26T02:48:46.593Z,20.45
2017-08-26T02:51:13.002Z,20.48
2017-08-26T02:53:39.394Z,20.52
2017-08-26T02:56:05.761Z,20.49
2017-08-26T02:58:34.296Z,20.61
2017-08-26T03:01:00.682Z,20.65
2017-08-26T03:03:27.049Z,20.72
2017-08-26T03:05:53.439Z,20.72
2017-08-26T03:08:19.804Z,20.76
2017-08-26T03:10:46.203Z,20.70
2017-08-26T03:13:12.612Z,20.72
2017-08-26T03:15:39.010Z,20.40
2017-08-26T03:18:05.413Z,20.16
2017-08-26T03:20:31.819Z,20.22
2017-08-26T03:22:58.216Z,20.33
2017-08-26T03:25:24.598Z,20.47
2017-08-26T03:27:51.004Z,20.59
2017-08-26T03:30:17.388Z,20.71
2017-08-26T03:32:43.773Z,20.44
2017-08-26T03:35:11.093Z,20.51
2017-08-26T03:37:37.473Z,20.60
2017-08-26T03:40:03.856Z,20.64
2017-08-26T03:42:30.233Z,20.71
2017-08-26T03:44:56.633Z,20.72
2017-08-26T03:47:23.418Z,20.71
2017-08-26T03:49:49.812Z,20.76
2017-08-26T03:52:16.204Z,20.76
2017-08-26T03:54:42.602Z,20.67
2017-08-26T03:57:08.992Z,20.63
2017-08-26T03:59:35.428Z,20.57
2017-08-26T04:02:01.835Z,20.39
2017-08-26T04:04:28.251Z,20.38
2017-08-26T04:06:54.682Z,20.39
2017-08-26T04:09:21.108Z,20.38
2017-08-26T04:11:47.509Z,20.49
2017-08-26T04:14:13.886Z,20.55
2017-08-26T04:16:40.264Z,20.57
2017-08-26T04:19:06.654Z,20.56
2017-08-26T04:21:33.038Z,20.57
2017-08-26T04:23:59.411Z,20.35
2017-08-26T04:26:25.797Z,20.36
2017-08-26T04:28:52.196Z,20.46
2017-08-26T04:31:18.602Z,20.50
2017-08-26T04:33:45.028Z,20.51
2017-08-26T04:36:11.457Z,20.59
2017-08-26T04:38:37.874Z,20.57
2017-08-26T04:41:04.267Z,20.49
2017-08-26T04:43:30.659Z,20.39
2017-08-26T04:45:57.056Z,20.38
2017-08-26T04:48:23.438Z,20.35
2017-08-26T04:50:49.887Z,20.33
2017-08-26T04:53:16.315Z,20.45
2017-08-26T04:55:42.729Z,20.52
2017-08-26T04:58:09.128Z,20.49
2017-08-26T05:00:35.521Z,20.51
2017-08-26T05:03:01.891Z,20.49
2017-08-26T05:05:28.292Z,20.36
2017-08-26T05:07:54.679Z,20.46
2017-08-26T05:10:21.078Z,20.54
2017-08-26T05:12:47.438Z,20.52
2017-08-26T05:15:13.822Z,20.39
2017-08-26T05:17:40.208Z,20.38
2017-08-26T05:20:06.616Z,20.46
2017-08-26T05:22:33.027Z,20.45
2017-08-26T05:24:59.487Z,20.38
2017-08-26T05:27:25.878Z,20.36
2017-08-26T05:29:52.257Z,20.32
2017-08-26T05:32:18.682Z,20.44
2017-08-26T05:34:45.065Z,20.51
2017-08-26T05:37:11.476Z,20.54
2017-08-26T05:39:37.867Z,20.55
2017-08-26T05:42:04.243Z,20.58
2017-08-26T05:44:30.643Z,20.50
2017-08-26T05:46:57.073Z,20.39
2017-08-26T05:49:23.477Z,20.38
2017-08-26T05:51:49.885Z,20.35
2017-08-26T05:54:16.314Z,20.29
2017-08-26T05:56:42.684Z,20.21
2017-08-26T05:59:09.043Z,20.23
2017-08-26T06:01:35.475Z,20.25
2017-08-26T06:04:01.862Z,20.31
2017-08-26T06:06:28.230Z,20.44
2017-08-26T06:08:54.638Z,20.47
2017-08-26T06:11:21.022Z,20.61
2017-08-26T06:13:47.451Z,20.71
2017-08-26T06:16:13.853Z,20.76
2017-08-26T06:18:40.253Z,20.81
2017-08-26T06:21:06.655Z,20.80
2017-08-26T06:23:33.047Z,20.82
2017-08-26T06:25:59.438Z,20.85
2017-08-26T06:28:25.844Z,20.84
2017-08-26T06:30:52.230Z,20.88
2017-08-26T06:33:18.591Z,20.93
2017-08-26T06:35:44.947Z,20.93
2017-08-26T06:38:11.347Z,20.99
2017-08-26T06:40:37.768Z,21.07
2017-08-26T06:43:04.146Z,21.11
2017-08-26T06:45:30.529Z,21.15
2017-08-26T06:47:56.937Z,21.18
2017-08-26T06:50:23.291Z,21.10
2017-08-26T06:52:49.682Z,21.06
2017-08-26T06:55:16.064Z,21.17
2017-08-26T06:57:42.502Z,21.25
2017-08-26T07:00:08.925Z,21.21
2017-08-26T07:02:35.340Z,21.17
2017-08-26T07:05:01.738Z,21.26
2017-08-26T07:07:28.128Z,21.40
2017-08-26T07:09:54.546Z,21.37
2017-08-26T07:12:20.924Z,21.45
2017-08-26T07:14:47.305Z,21.50
2017-08-26T07:17:13.701Z,21.51
2017-08-26T07:19:40.101Z,21.74
2017-08-26T07:22:06.506Z,21.71
2017-08-26T07:24:32.874Z,21.67
2017-08-26T07:26:59.238Z,21.70
2017-08-26T07:29:25.639Z,21.70
2017-08-26T07:31:52.034Z,21.90
2017-08-26T07:34:18.435Z,22.07
2017-08-26T07:36:45.283Z,22.09
2017-08-26T07:39:11.678Z,22.06
2017-08-26T07:41:38.066Z,22.05
2017-08-26T07:44:04.691Z,21.99
2017-08-26T07:46:31.091Z,22.08
2017-08-26T07:48:57.484Z,22.31
2017-08-26T07:51:23.855Z,22.27
2017-08-26T07:53:50.227Z,22.26
2017-08-26T07:56:16.627Z,22.30
2017-08-26T07:58:43.005Z,22.44
2017-08-26T08:01:09.443Z,22.44
2017-08-26T08:03:35.849Z,22.54
2017-08-26T08:06:02.264Z,22.79
2017-08-26T08:08:28.691Z,22.93
2017-08-26T08:10:55.068Z,22.95
2017-08-26T08:13:21.475Z,22.87
2017-08-26T08:15:47.869Z,22.92
2017-08-26T08:18:14.316Z,23.28
2017-08-26T08:20:40.775Z,23.42
2017-08-26T08:23:07.205Z,23.35
2017-08-26T08:25:33.578Z,23.57
2017-08-26T08:27:59.963Z,23.67
2017-08-26T08:30:26.345Z,23.49
2017-08-26T08:32:52.773Z,23.49
2017-08-26T08:35:19.150Z,23.47
2017-08-26T08:37:45.624Z,23.52
2017-08-26T08:40:12.083Z,23.39
2017-08-26T08:42:38.479Z,23.49
2017-08-26T08:45:04.883Z,23.58
2017-08-26T08:47:31.268Z,23.57
2017-08-26T08:49:57.682Z,23.58
2017-08-26T08:52:24.089Z,23.73
2017-08-26T08:54:51.577Z,23.99
2017-08-26T08:57:18.003Z,24.15
2017-08-26T08:59:44.421Z,23.93
2017-08-26T09:02:10.798Z,24.07
2017-08-26T09:04:37.185Z,23.91
2017-08-26T09:07:03.585Z,24.15
2017-08-26T09:09:29.985Z,24.36
2017-08-26T09:11:56.413Z,24.44
2017-08-26T09:14:22.869Z,24.31
2017-08-26T09:16:49.274Z,24.36
2017-08-26T09:19:15.689Z,24.20
2017-08-26T09:21:42.086Z,24.12
2017-08-26T09:24:08.457Z,24.13
2017-08-26T09:26:34.844Z,23.91
2017-08-26T09:29:01.223Z,23.96
2017-08-26T09:31:27.604Z,23.91
2017-08-26T09:33:54.000Z,24.14
2017-08-26T09:36:20.425Z,24.05
2017-08-26T09:38:46.815Z,24.04
2017-08-26T09:41:13.246Z,23.83
2017-08-26T09:43:39.662Z,24.33
2017-08-26T09:46:06.071Z,24.29
2017-08-26T09:48:32.470Z,24.50
2017-08-26T09:50:58.920Z,24.44
2017-08-26T09:53:25.342Z,24.28
2017-08-26T09:55:51.790Z,24.43
2017-08-26T09:58:18.212Z,24.48
2017-08-26T10:00:44.662Z,24.24
2017-08-26T10:03:11.054Z,24.79
2017-08-26T10:05:37.453Z,24.79
2017-08-26T10:08:03.850Z,24.93
2017-08-26T10:10:30.237Z,25.05
2017-08-26T10:12:56.614Z,24.80
2017-08-26T10:15:23.017Z,24.76
2017-08-26T10:17:49.502Z,24.63
2017-08-26T10:20:15.873Z,25.10
2017-08-26T10:22:42.268Z,24.86
2017-08-26T10:25:08.683Z,24.67
2017-08-26T10:27:35.058Z,24.44
2017-08-26T10:30:01.576Z,24.41
2017-08-26T10:32:27.994Z,24.71
2017-08-26T10:34:54.440Z,24.78
2017-08-26T10:37:20.889Z,24.93
2017-08-26T10:39:47.316Z,24.83
2017-08-26T10:42:13.730Z,25.02
2017-08-26T10:44:40.172Z,24.92
2017-08-26T10:47:06.664Z,25.01
2017-08-26T10:49:33.105Z,24.82
2017-08-26T10:51:59.558Z,24.61
2017-08-26T10:54:26.020Z,24.51
2017-08-26T10:56:52.460Z,24.63
2017-08-26T10:59:18.852Z,24.59
2017-08-26T11:01:45.256Z,25.20
2017-08-26T11:04:11.660Z,25.28
2017-08-26T11:06:38.078Z,25.22
2017-08-26T11:09:04.549Z,25.18
2017-08-26T11:11:31.005Z,25.32
2017-08-26T11:13:57.406Z,25.61
2017-08-26T11:16:23.858Z,26.15
2017-08-26T11:18:50.277Z,26.12
2017-08-26T11:21:17.011Z,26.17
2017-08-26T11:23:43.503Z,25.90
2017-08-26T11:26:09.901Z,25.94
2017-08-26T11:28:36.324Z,26.50
2017-08-26T11:31:02.674Z,26.24
2017-08-26T11:33:29.056Z,25.93
2017-08-26T11:35:55.468Z,26.28
2017-08-26T11:38:21.864Z,26.62
2017-08-26T11:40:48.244Z,27.06
2017-08-26T11:43:14.652Z,26.66
2017-08-26T11:45:41.077Z,27.06
2017-08-26T11:48:07.478Z,26.84
2017-08-26T11:50:33.865Z,27.13
2017-08-26T11:53:00.256Z,26.92
2017-08-26T11:55:26.664Z,26.31
2017-08-26T11:57:53.134Z,27.02
2017-08-26T12:00:19.557Z,27.31
2017-08-26T12:02:45.999Z,26.96
2017-08-26T12:05:12.405Z,26.85
2017-08-26T12:07:38.894Z,27.15
2017-08-26T12:10:05.316Z,27.08
2017-08-26T12:12:31.929Z,26.91
2017-08-26T12:14:58.333Z,26.84
2017-08-26T12:17:24.848Z,26.75
2017-08-26T12:19:51.294Z,26.95
2017-08-26T12:22:17.774Z,26.75
2017-08-26T12:24:44.165Z,26.12
2017-08-26T12:27:11.378Z,26.41
2017-08-26T12:29:37.944Z,26.66
2017-08-26T12:32:04.416Z,26.68
2017-08-26T12:34:30.823Z,26.51
2017-08-26T12:36:57.242Z,26.30
2017-08-26T12:39:23.637Z,26.23
2017-08-26T12:41:50.125Z,26.14
2017-08-26T12:44:16.509Z,26.14
2017-08-26T12:46:43.343Z,26.20
2017-08-26T12:49:09.790Z,26.15
2017-08-26T12:51:39.301Z,26.31
2017-08-26T13:07:06.007Z,26.61
2017-08-26T13:09:32.781Z,26.69
2017-08-26T13:12:00.313Z,26.50
2017-08-26T13:14:26.824Z,26.80
2017-08-26T13:16:53.451Z,26.70
2017-08-26T13:19:19.838Z,26.70
2017-08-26T13:21:46.273Z,26.63
2017-08-26T13:24:12.684Z,26.88
2017-08-26T13:26:39.060Z,26.82
2017-08-26T13:29:05.623Z,26.58
2017-08-26T13:31:32.075Z,26.58
2017-08-26T13:33:58.497Z,26.71
2017-08-26T13:36:24.899Z,26.77
2017-08-26T13:38:51.341Z,26.83
2017-08-26T13:41:17.703Z,27.15
2017-08-26T13:43:44.062Z,27.12
2017-08-26T13:46:10.530Z,27.13
2017-08-26T13:48:37.083Z,26.98
2017-08-26T13:51:03.604Z,27.20
2017-08-26T13:53:30.029Z,27.11
2017-08-26T13:55:56.553Z,27.16
2017-08-26T13:58:22.992Z,27.31
2017-08-26T14:00:49.564Z,27.38
2017-08-26T14:03:16.088Z,27.22
2017-08-26T14:05:42.640Z,27.18
2017-08-26T14:08:09.051Z,27.45
2017-08-26T14:10:35.462Z,27.38
2017-08-26T14:13:01.934Z,27.38
2017-08-26T14:15:28.413Z,27.30
2017-08-26T14:17:54.833Z,27.14
2017-08-26T14:20:21.554Z,27.41
2017-08-26T14:22:47.976Z,27.39
2017-08-26T14:25:14.415Z,27.29
2017-08-26T14:27:40.803Z,27.11
2017-08-26T14:30:07.593Z,27.15
2017-08-26T14:32:33.989Z,27.34
2017-08-26T14:35:00.371Z,27.46
2017-08-26T14:37:26.747Z,27.30
2017-08-26T14:39:54.350Z,27.34
2017-08-26T14:42:20.751Z,27.27
2017-08-26T14:44:47.135Z,27.35
2017-08-26T14:47:13.837Z,27.43
2017-08-26T14:49:40.210Z,27.42
2017-08-26T14:52:06.598Z,27.43
2017-08-26T14:54:33.007Z,27.64
2017-08-26T14:56:59.507Z,27.65
2017-08-26T14:59:25.919Z,27.40
2017-08-26T15:01:52.396Z,26.94
2017-08-26T15:04:18.885Z,27.15
2017-08-26T15:06:45.265Z,27.34
2017-08-26T15:09:15.537Z,27.31
2017-08-26T15:11:42.564Z,27.49
2017-08-26T15:14:09.108Z,27.24
2017-08-26T15:16:35.524Z,27.02
2017-08-26T15:19:01.928Z,27.14
2017-08-26T15:21:28.332Z,27.03
2017-08-26T15:23:54.771Z,27.06
2017-08-26T15:26:21.214Z,26.90
2017-08-26T15:28:47.615Z,26.96
2017-08-26T15:31:14.020Z,26.98
2017-08-26T15:33:40.461Z,26.78
2017-08-26T15:36:06.908Z,26.67
2017-08-26T15:38:33.298Z,26.80
2017-08-26T15:40:59.693Z,26.85
2017-08-26T15:43:26.126Z,26.77
2017-08-26T15:45:52.563Z,26.84
2017-08-26T15:48:18.960Z,26.63
2017-08-26T15:50:45.407Z,26.60
2017-08-26T15:53:11.820Z,26.59
2017-08-26T15:55:38.334Z,26.53
2017-08-26T15:58:04.817Z,26.47
2017-08-26T16:00:31.232Z,26.59
2017-08-26T16:02:57.636Z,26.66
2017-08-26T16:05:24.056Z,26.61
2017-08-26T16:07:50.430Z,26.51
2017-08-26T16:10:16.820Z,26.41
2017-08-26T16:12:43.515Z,26.57
2017-08-26T16:15:09.895Z,26.54
2017-08-26T16:17:36.292Z,26.32
2017-08-26T16:20:02.693Z,26.28
2017-08-26T16:22:29.141Z,26.24
2017-08-26T16:24:55.586Z,26.23
2017-08-26T16:27:22.014Z,26.27
2017-08-26T16:29:48.469Z,26.16
2017-08-26T16:32:14.831Z,26.25
2017-08-26T16:34:41.199Z,26.20
2017-08-26T16:37:07.596Z,26.27
2017-08-26T16:39:33.988Z,26.48
2017-08-26T16:42:00.355Z,26.32
2017-08-26T16:44:26.715Z,26.34
2017-08-26T16:46:53.096Z,26.27
2017-08-26T16:49:19.468Z,26.20
2017-08-26T16:51:45.879Z,26.18
2017-08-26T16:54:12.257Z,26.13
2017-08-26T16:56:38.705Z,26.13
2017-08-26T16:59:05.147Z,26.12
2017-08-26T17:01:31.541Z,26.05
2017-08-26T17:03:57.967Z,26.00
2017-08-26T17:06:24.485Z,25.98
2017-08-26T17:08:50.886Z,26.02
2017-08-26T17:11:17.383Z,25.97
2017-08-26T17:13:43.850Z,25.88
2017-08-26T17:16:10.379Z,25.88
2017-08-26T17:18:37.002Z,25.79
2017-08-26T17:21:03.452Z,25.78
2017-08-26T17:23:29.859Z,25.76
2017-08-26T17:25:56.431Z,25.69
2017-08-26T17:28:22.804Z,25.68
2017-08-26T17:30:49.204Z,25.60
2017-08-26T17:33:15.608Z,25.58
2017-08-26T17:35:42.120Z,25.54
2017-08-26T17:38:08.503Z,25.46
2017-08-26T17:40:35.982Z,25.42
2017-08-26T17:43:02.491Z,25.44
2017-08-26T17:45:28.900Z,25.36
2017-08-26T17:47:55.372Z,25.29
2017-08-26T17:50:21.751Z,25.20
2017-08-26T17:52:48.111Z,25.17
2017-08-26T17:55:14.533Z,25.17
2017-08-26T17:57:40.915Z,25.20
2017-08-26T18:00:07.262Z,25.26
2017-08-26T18:02:33.655Z,25.10
2017-08-26T18:05:00.019Z,25.02
2017-08-26T18:07:26.415Z,25.02
2017-08-26T18:09:52.838Z,24.80
2017-08-26T18:12:19.197Z,24.66
2017-08-26T18:14:45.547Z,24.70
2017-08-26T18:17:11.933Z,24.71
2017-08-26T18:19:38.319Z,24.77
2017-08-26T18:22:04.712Z,24.77
2017-08-26T18:24:31.142Z,24.74
2017-08-26T18:26:57.530Z,24.69
2017-08-26T18:29:23.910Z,24.55
2017-08-26T18:31:50.336Z,24.52
2017-08-26T18:34:16.780Z,24.52
2017-08-26T18:36:43.149Z,24.47
2017-08-26T18:39:09.529Z,24.46
2017-08-26T18:41:35.926Z,24.41
2017-08-26T18:44:02.365Z,24.40
2017-08-26T18:46:28.980Z,24.28
2017-08-26T18:48:55.354Z,24.35
2017-08-26T18:51:21.764Z,24.21
2017-08-26T18:53:49.047Z,24.19
2017-08-26T18:56:15.420Z,24.11
2017-08-26T18:58:41.815Z,24.05
2017-08-26T19:01:08.197Z,23.98
2017-08-26T19:03:34.600Z,24.07
2017-08-26T19:06:01.030Z,24.04
2017-08-26T19:08:27.459Z,24.04
2017-08-26T19:10:53.954Z,23.88
2017-08-26T19:13:20.402Z,23.89
2017-08-26T19:15:46.765Z,23.83
2017-08-26T19:18:13.149Z,23.80
2017-08-26T19:20:39.537Z,23.81
2017-08-26T19:23:05.971Z,23.79
2017-08-26T19:25:32.420Z,23.81
2017-08-26T19:27:58.794Z,23.63
2017-08-26T19:30:25.246Z,23.71
2017-08-26T19:32:51.670Z,23.59
2017-08-26T19:35:18.052Z,23.51
2017-08-26T19:37:44.434Z,23.51
2017-08-26T19:40:10.820Z,23.48
2017-08-26T19:42:37.223Z,23.51
2017-08-26T19:45:03.607Z,23.35
2017-08-26T19:47:30.090Z,23.37
2017-08-26T19:49:56.545Z,23.45
2017-08-26T19:52:22.918Z,23.36
2017-08-26T19:54:49.349Z,23.34
2017-08-26T19:57:15.730Z,23.41
2017-08-26T19:59:42.164Z,23.32
2017-08-26T20:02:08.597Z,23.26
2017-08-26T20:04:34.992Z,23.27
2017-08-26T20:07:01.375Z,23.19
2017-08-26T20:09:27.754Z,23.18
2017-08-26T20:11:54.163Z,23.13
2017-08-26T20:14:20.518Z,23.15
2017-08-26T20:16:46.931Z,22.98
2017-08-26T20:19:13.278Z,22.93
2017-08-26T20:21:39.766Z,23.05
2017-08-26T20:24:06.143Z,22.91
2017-08-26T20:26:32.494Z,22.91
2017-08-26T20:28:58.890Z,22.87
2017-08-26T20:31:25.291Z,22.93
2017-08-26T20:33:51.710Z,22.88
2017-08-26T20:36:18.151Z,22.81
2017-08-26T20:38:44.583Z,22.73
2017-08-26T20:41:10.974Z,22.74
2017-08-26T20:43:37.337Z,22.78
2017-08-26T20:46:03.734Z,22.80
2017-08-26T20:48:30.184Z,22.75
2017-08-26T20:50:56.580Z,22.75
2017-08-26T20:53:23.042Z,22.77
2017-08-26T20:55:49.471Z,22.75
2017-08-26T20:58:15.984Z,22.72
2017-08-26T21:00:42.429Z,22.52
2017-08-26T21:03:08.828Z,22.42
2017-08-26T21:05:35.219Z,22.42
2017-08-26T21:08:01.638Z,22.43
2017-08-26T21:10:28.054Z,22.51
2017-08-26T21:12:54.464Z,22.56
2017-08-26T21:15:20.861Z,22.49
2017-08-26T21:17:47.247Z,22.53
2017-08-26T21:20:13.625Z,22.35
2017-08-26T21:22:40.014Z,22.31
2017-08-26T21:25:06.378Z,22.45
2017-08-26T21:27:32.742Z,22.30
2017-08-26T21:29:59.156Z,22.30
2017-08-26T21:32:25.561Z,22.26
2017-08-26T21:34:51.932Z,22.27
2017-08-26T21:37:18.290Z,22.19
2017-08-26T21:39:44.673Z,22.13
2017-08-26T21:42:11.090Z,22.07
2017-08-26T21:44:37.450Z,22.20
2017-08-26T21:47:03.808Z,22.12
2017-08-26T21:49:30.411Z,21.81
2017-08-26T21:51:56.875Z,21.81
2017-08-26T21:54:23.268Z,21.98
2017-08-26T21:56:49.662Z,21.94
2017-08-26T21:59:16.022Z,21.68
2017-08-26T22:01:42.384Z,21.56
2017-08-26T22:04:08.751Z,21.53
2017-08-26T22:06:35.208Z,21.44
2017-08-26T22:09:01.621Z,21.56
2017-08-26T22:11:28.021Z,21.55
2017-08-26T22:13:54.400Z,21.67
2017-08-26T22:16:20.779Z,21.72
2017-08-26T22:18:47.156Z,21.65
2017-08-26T22:21:13.610Z,21.52
2017-08-26T22:23:40.005Z,21.64
2017-08-26T22:26:06.380Z,21.61
2017-08-26T22:28:32.750Z,21.60
2017-08-26T22:30:59.133Z,21.72
2017-08-26T22:33:25.555Z,21.73
2017-08-26T22:35:51.907Z,21.49
2017-08-26T22:38:18.270Z,21.52
2017-08-26T22:40:44.654Z,21.53
2017-08-26T22:43:11.014Z,21.42
2017-08-26T22:45:40.671Z,21.28
2017-08-26T22:48:10.196Z,21.15
2017-08-26T22:50:39.849Z,21.40
2017-08-26T22:53:09.287Z,21.16
2017-08-26T22:55:39.176Z,21.24
2017-08-26T22:58:07.861Z,21.01
2017-08-26T23:00:34.465Z,21.24
2017-08-26T23:03:00.830Z,20.89
2017-08-26T23:05:27.182Z,21.19
2017-08-26T23:07:53.560Z,21.15
2017-08-26T23:10:19.946Z,21.23
2017-08-26T23:12:51.223Z,21.38
2017-08-26T23:15:19.284Z,21.37
2017-08-26T23:17:45.692Z,21.43
2017-08-26T23:20:14.749Z,21.44
2017-08-26T23:22:42.669Z,21.30
2017-08-26T23:25:10.053Z,21.27
2017-08-26T23:27:36.427Z,21.23
2017-08-26T23:30:03.355Z,21.29
2017-08-26T23:32:29.742Z,21.30
2017-08-26T23:34:56.289Z,21.24
2017-08-26T23:37:22.653Z,21.18
2017-08-26T23:39:49.076Z,21.15
2017-08-26T23:42:15.455Z,21.18
2017-08-26T23:44:41.826Z,21.09
2017-08-26T23:47:08.246Z,21.14
2017-08-26T23:49:34.695Z,21.17
2017-08-26T23:52:01.060Z,20.96
2017-08-26T23:54:27.406Z,21.00
2017-08-26T23:56:53.779Z,21.06
2017-08-26T23:59:20.495Z,21.08
